sensor_id;sensor_type;location;lat;lon;timestamp;pressure;altitude;pressure_sealevel;temperature;humidity
24558;BME280;12726;49.148;8.582;2023-02-12T00:02:11;102470.44;;;4.88;92.84
24558;BME280;12726;49.148;8.582;2023-02-12T00:04:57;102471.53;;;4.85;93.32
24558;BME280;12726;49.148;8.582;2023-02-12T00:07:43;102457.59;;;4.82;93.60
24558;BME280;12726;49.148;8.582;2023-02-12T00:10:28;102472.75;;;4.81;93.92
24558;BME280;12726;49.148;8.582;2023-02-12T00:13:16;102464.88;;;4.80;93.84
24558;BME280;12726;49.148;8.582;2023-02-12T00:16:03;102461.59;;;4.76;94.27
24558;BME280;12726;49.148;8.582;2023-02-12T00:18:50;102469.59;;;4.76;94.32
24558;BME280;12726;49.148;8.582;2023-02-12T00:21:37;102466.81;;;4.78;94.26
24558;BME280;12726;49.148;8.582;2023-02-12T00:24:22;102473.84;;;4.79;94.30
24558;BME280;12726;49.148;8.582;2023-02-12T00:27:08;102472.16;;;4.78;94.22
24558;BME280;12726;49.148;8.582;2023-02-12T00:29:53;102461.47;;;4.78;94.44
24558;BME280;12726;49.148;8.582;2023-02-12T00:32:38;102465.72;;;4.80;94.33
24558;BME280;12726;49.148;8.582;2023-02-12T00:35:25;102468.41;;;4.80;94.23
24558;BME280;12726;49.148;8.582;2023-02-12T00:38:11;102468.50;;;4.79;94.80
24558;BME280;12726;49.148;8.582;2023-02-12T00:40:57;102473.13;;;4.77;94.74
24558;BME280;12726;49.148;8.582;2023-02-12T00:43:43;102482.81;;;4.78;94.78
24558;BME280;12726;49.148;8.582;2023-02-12T00:46:28;102480.28;;;4.76;94.65
24558;BME280;12726;49.148;8.582;2023-02-12T00:49:13;102484.91;;;4.74;94.78
24558;BME280;12726;49.148;8.582;2023-02-12T00:51:59;102477.75;;;4.75;94.66
24558;BME280;12726;49.148;8.582;2023-02-12T00:54:46;102476.78;;;4.76;95.14
24558;BME280;12726;49.148;8.582;2023-02-12T00:57:32;102476.91;;;4.74;94.95
24558;BME280;12726;49.148;8.582;2023-02-12T01:00:17;102478.72;;;4.73;94.97
24558;BME280;12726;49.148;8.582;2023-02-12T01:03:03;102491.22;;;4.73;95.16
24558;BME280;12726;49.148;8.582;2023-02-12T01:05:49;102487.81;;;4.71;95.17
24558;BME280;12726;49.148;8.582;2023-02-12T01:08:34;102500.31;;;4.70;95.72
24558;BME280;12726;49.148;8.582;2023-02-12T01:11:21;102503.81;;;4.71;95.18
24558;BME280;12726;49.148;8.582;2023-02-12T01:14:07;102501.88;;;4.73;95.22
24558;BME280;12726;49.148;8.582;2023-02-12T01:16:52;102497.41;;;4.73;95.28
24558;BME280;12726;49.148;8.582;2023-02-12T01:19:37;102506.25;;;4.74;95.29
24558;BME280;12726;49.148;8.582;2023-02-12T01:22:23;102491.94;;;4.75;95.20
24558;BME280;12726;49.148;8.582;2023-02-12T01:25:08;102499.09;;;4.75;94.84
24558;BME280;12726;49.148;8.582;2023-02-12T01:27:55;102480.53;;;4.73;94.69
24558;BME280;12726;49.148;8.582;2023-02-12T01:30:40;102486.84;;;4.72;94.59
24558;BME280;12726;49.148;8.582;2023-02-12T01:33:26;102492.06;;;4.73;94.71
24558;BME280;12726;49.148;8.582;2023-02-12T01:36:11;102492.66;;;4.77;94.42
24558;BME280;12726;49.148;8.582;2023-02-12T01:38:57;102488.44;;;4.75;94.39
24558;BME280;12726;49.148;8.582;2023-02-12T01:41:43;102486.84;;;4.72;94.63
24558;BME280;12726;49.148;8.582;2023-02-12T01:44:31;102483.44;;;4.70;94.84
24558;BME280;12726;49.148;8.582;2023-02-12T01:47:18;102479.22;;;4.67;94.94
24558;BME280;12726;49.148;8.582;2023-02-12T01:50:06;102487.47;;;4.64;94.83
24558;BME280;12726;49.148;8.582;2023-02-12T01:52:54;102485.41;;;4.68;95.17
24558;BME280;12726;49.148;8.582;2023-02-12T01:55:41;102470.47;;;4.65;95.43
24558;BME280;12726;49.148;8.582;2023-02-12T01:58:30;102486.03;;;4.60;95.58
24558;BME280;12726;49.148;8.582;2023-02-12T02:01:22;102485.41;;;4.57;96.11
24558;BME280;12726;49.148;8.582;2023-02-12T02:04:11;102483.84;;;4.54;96.36
24558;BME280;12726;49.148;8.582;2023-02-12T02:07:01;102472.31;;;4.54;96.30
24558;BME280;12726;49.148;8.582;2023-02-12T02:09:48;102467.97;;;4.53;96.42
24558;BME280;12726;49.148;8.582;2023-02-12T02:12:34;102468.81;;;4.53;96.79
24558;BME280;12726;49.148;8.582;2023-02-12T02:15:40;102472.31;;;4.54;96.70
24558;BME280;12726;49.148;8.582;2023-02-12T02:18:34;102461.66;;;4.54;96.87
24558;BME280;12726;49.148;8.582;2023-02-12T02:21:44;102461.50;;;4.55;96.75
24558;BME280;12726;49.148;8.582;2023-02-12T02:25:13;102465.53;;;4.61;96.58
24558;BME280;12726;49.148;8.582;2023-02-12T02:28:11;102458.59;;;4.58;96.38
24558;BME280;12726;49.148;8.582;2023-02-12T02:31:10;102455.09;;;4.58;96.45
24558;BME280;12726;49.148;8.582;2023-02-12T02:34:03;102463.31;;;4.55;96.80
24558;BME280;12726;49.148;8.582;2023-02-12T02:36:56;102460.66;;;4.55;96.82
24558;BME280;12726;49.148;8.582;2023-02-12T02:39:49;102459.84;;;4.54;96.93
24558;BME280;12726;49.148;8.582;2023-02-12T02:42:38;102467.00;;;4.54;96.92
24558;BME280;12726;49.148;8.582;2023-02-12T02:45:28;102474.00;;;4.55;97.01
24558;BME280;12726;49.148;8.582;2023-02-12T02:48:22;102461.88;;;4.51;96.77
24558;BME280;12726;49.148;8.582;2023-02-12T02:51:13;102458.50;;;4.49;97.05
24558;BME280;12726;49.148;8.582;2023-02-12T02:54:04;102455.13;;;4.47;97.40
24558;BME280;12726;49.148;8.582;2023-02-12T02:56:55;102464.94;;;4.46;97.83
24558;BME280;12726;49.148;8.582;2023-02-12T02:59:46;102462.38;;;4.45;97.72
24558;BME280;12726;49.148;8.582;2023-02-12T03:02:36;102455.22;;;4.45;97.95
24558;BME280;12726;49.148;8.582;2023-02-12T03:05:28;102450.63;;;4.47;97.72
24558;BME280;12726;49.148;8.582;2023-02-12T03:08:18;102456.78;;;4.48;98.47
24558;BME280;12726;49.148;8.582;2023-02-12T03:11:11;102463.72;;;4.50;98.40
24558;BME280;12726;49.148;8.582;2023-02-12T03:14:02;102456.31;;;4.54;97.98
24558;BME280;12726;49.148;8.582;2023-02-12T03:16:54;102455.31;;;4.55;97.75
24558;BME280;12726;49.148;8.582;2023-02-12T03:19:46;102452.53;;;4.56;97.53
24558;BME280;12726;49.148;8.582;2023-02-12T03:22:36;102455.94;;;4.58;97.29
24558;BME280;12726;49.148;8.582;2023-02-12T03:25:27;102456.78;;;4.59;97.21
24558;BME280;12726;49.148;8.582;2023-02-12T03:28:18;102464.91;;;4.57;96.73
24558;BME280;12726;49.148;8.582;2023-02-12T03:31:10;102457.03;;;4.56;96.47
24558;BME280;12726;49.148;8.582;2023-02-12T03:34:04;102458.00;;;4.55;96.59
24558;BME280;12726;49.148;8.582;2023-02-12T03:36:56;102460.81;;;4.53;96.49
24558;BME280;12726;49.148;8.582;2023-02-12T03:39:51;102461.88;;;4.51;96.42
24558;BME280;12726;49.148;8.582;2023-02-12T03:42:43;102459.00;;;4.54;96.72
24558;BME280;12726;49.148;8.582;2023-02-12T03:45:40;102464.44;;;4.52;96.53
24558;BME280;12726;49.148;8.582;2023-02-12T03:48:32;102466.38;;;4.50;96.51
24558;BME280;12726;49.148;8.582;2023-02-12T03:51:22;102464.66;;;4.49;96.83
24558;BME280;12726;49.148;8.582;2023-02-12T03:54:11;102456.44;;;4.41;96.63
24558;BME280;12726;49.148;8.582;2023-02-12T03:57:02;102471.13;;;4.47;96.82
24558;BME280;12726;49.148;8.582;2023-02-12T03:59:52;102466.63;;;4.47;96.77
24558;BME280;12726;49.148;8.582;2023-02-12T04:02:38;102473.78;;;4.47;96.97
24558;BME280;12726;49.148;8.582;2023-02-12T04:05:25;102478.13;;;4.48;97.21
24558;BME280;12726;49.148;8.582;2023-02-12T04:08:15;102472.09;;;4.46;97.33
24558;BME280;12726;49.148;8.582;2023-02-12T04:11:09;102473.06;;;4.45;97.15
24558;BME280;12726;49.148;8.582;2023-02-12T04:14:19;102471.25;;;4.45;97.46
24558;BME280;12726;49.148;8.582;2023-02-12T04:17:12;102471.34;;;4.44;97.63
24558;BME280;12726;49.148;8.582;2023-02-12T04:20:06;102482.03;;;4.44;97.72
24558;BME280;12726;49.148;8.582;2023-02-12T04:23:02;102480.44;;;4.41;97.67
24558;BME280;12726;49.148;8.582;2023-02-12T04:25:57;102483.94;;;4.42;97.98
24558;BME280;12726;49.148;8.582;2023-02-12T04:28:53;102484.91;;;4.41;98.08
24558;BME280;12726;49.148;8.582;2023-02-12T04:31:45;102492.91;;;4.41;98.47
24558;BME280;12726;49.148;8.582;2023-02-12T04:34:36;102486.88;;;4.39;98.45
24558;BME280;12726;49.148;8.582;2023-02-12T04:37:27;102492.81;;;4.42;98.33
24558;BME280;12726;49.148;8.582;2023-02-12T04:40:17;102494.78;;;4.40;98.33
24558;BME280;12726;49.148;8.582;2023-02-12T04:43:03;102490.13;;;4.42;98.79
24558;BME280;12726;49.148;8.582;2023-02-12T04:45:48;102489.16;;;4.43;98.15
24558;BME280;12726;49.148;8.582;2023-02-12T04:48:36;102483.94;;;4.42;98.78
24558;BME280;12726;49.148;8.582;2023-02-12T04:51:25;102484.91;;;4.41;98.44
24558;BME280;12726;49.148;8.582;2023-02-12T04:54:11;102485.78;;;4.41;98.67
24558;BME280;12726;49.148;8.582;2023-02-12T04:56:57;102489.28;;;4.42;98.53
24558;BME280;12726;49.148;8.582;2023-02-12T04:59:42;102489.06;;;4.45;98.49
24558;BME280;12726;49.148;8.582;2023-02-12T05:02:27;102483.72;;;4.45;98.41
24558;BME280;12726;49.148;8.582;2023-02-12T05:05:14;102487.13;;;4.47;98.63
24558;BME280;12726;49.148;8.582;2023-02-12T05:07:59;102482.88;;;4.44;98.54
24558;BME280;12726;49.148;8.582;2023-02-12T05:10:45;102485.19;;;4.38;98.31
24558;BME280;12726;49.148;8.582;2023-02-12T05:13:30;102482.63;;;4.36;99.01
24558;BME280;12726;49.148;8.582;2023-02-12T05:16:16;102482.75;;;4.34;98.68
24558;BME280;12726;49.148;8.582;2023-02-12T05:19:02;102477.56;;;4.33;99.08
24558;BME280;12726;49.148;8.582;2023-02-12T05:21:51;102472.22;;;4.33;99.16
24558;BME280;12726;49.148;8.582;2023-02-12T05:24:36;102482.03;;;4.32;98.99
24558;BME280;12726;49.148;8.582;2023-02-12T05:27:21;102476.81;;;4.31;98.84
24558;BME280;12726;49.148;8.582;2023-02-12T05:30:07;102479.38;;;4.32;99.24
24558;BME280;12726;49.148;8.582;2023-02-12T05:32:53;102478.38;;;4.33;98.99
24558;BME280;12726;49.148;8.582;2023-02-12T05:35:38;102478.38;;;4.33;99.30
24558;BME280;12726;49.148;8.582;2023-02-12T05:38:25;102483.47;;;4.37;99.27
24558;BME280;12726;49.148;8.582;2023-02-12T05:41:12;102474.75;;;4.34;98.84
24558;BME280;12726;49.148;8.582;2023-02-12T05:43:58;102476.31;;;4.37;98.84
24558;BME280;12726;49.148;8.582;2023-02-12T05:46:43;102478.16;;;4.37;98.71
24558;BME280;12726;49.148;8.582;2023-02-12T05:49:29;102475.47;;;4.37;98.80
24558;BME280;12726;49.148;8.582;2023-02-12T05:52:14;102481.03;;;4.33;98.53
24558;BME280;12726;49.148;8.582;2023-02-12T05:55:01;102480.44;;;4.30;98.73
24558;BME280;12726;49.148;8.582;2023-02-12T05:57:46;102482.50;;;4.26;98.98
24558;BME280;12726;49.148;8.582;2023-02-12T06:00:31;102485.41;;;4.23;99.23
24558;BME280;12726;49.148;8.582;2023-02-12T06:03:16;102478.50;;;4.21;99.05
24558;BME280;12726;49.148;8.582;2023-02-12T06:06:02;102484.94;;;4.18;99.57
24558;BME280;12726;49.148;8.582;2023-02-12T06:08:48;102476.56;;;4.12;99.60
24558;BME280;12726;49.148;8.582;2023-02-12T06:11:35;102479.25;;;4.12;99.49
24558;BME280;12726;49.148;8.582;2023-02-12T06:14:20;102483.94;;;4.08;99.62
24558;BME280;12726;49.148;8.582;2023-02-12T06:17:06;102476.91;;;4.07;99.84
24558;BME280;12726;49.148;8.582;2023-02-12T06:19:51;102482.34;;;4.06;99.72
24558;BME280;12726;49.148;8.582;2023-02-12T06:22:36;102487.09;;;4.02;100.00
24558;BME280;12726;49.148;8.582;2023-02-12T06:25:22;102489.13;;;3.99;100.00
24558;BME280;12726;49.148;8.582;2023-02-12T06:28:08;102492.78;;;3.98;100.00
24558;BME280;12726;49.148;8.582;2023-02-12T06:30:53;102493.88;;;3.95;100.00
24558;BME280;12726;49.148;8.582;2023-02-12T06:33:39;102496.44;;;3.97;100.00
24558;BME280;12726;49.148;8.582;2023-02-12T06:36:24;102507.69;;;4.00;100.00
24558;BME280;12726;49.148;8.582;2023-02-12T06:39:10;102507.56;;;4.02;100.00
24558;BME280;12726;49.148;8.582;2023-02-12T06:41:56;102514.34;;;4.06;100.00
24558;BME280;12726;49.148;8.582;2023-02-12T06:44:43;102513.50;;;4.05;100.00
24558;BME280;12726;49.148;8.582;2023-02-12T06:47:29;102523.72;;;4.11;100.00
24558;BME280;12726;49.148;8.582;2023-02-12T06:50:15;102525.38;;;4.12;100.00
24558;BME280;12726;49.148;8.582;2023-02-12T06:53:00;102519.81;;;4.15;100.00
24558;BME280;12726;49.148;8.582;2023-02-12T06:55:46;102523.22;;;4.17;100.00
24558;BME280;12726;49.148;8.582;2023-02-12T06:58:32;102514.75;;;4.23;100.00
24558;BME280;12726;49.148;8.582;2023-02-12T07:01:20;102524.44;;;4.24;100.00
24558;BME280;12726;49.148;8.582;2023-02-12T07:04:06;102515.47;;;4.25;100.00
24558;BME280;12726;49.148;8.582;2023-02-12T07:06:51;102523.22;;;4.28;100.00
24558;BME280;12726;49.148;8.582;2023-02-12T07:09:36;102523.00;;;4.31;100.00
24558;BME280;12726;49.148;8.582;2023-02-12T07:12:22;102525.41;;;4.34;100.00
24558;BME280;12726;49.148;8.582;2023-02-12T07:15:08;102529.53;;;4.39;100.00
24558;BME280;12726;49.148;8.582;2023-02-12T07:17:55;102525.91;;;4.40;100.00
24558;BME280;12726;49.148;8.582;2023-02-12T07:20:40;102525.53;;;4.44;100.00
24558;BME280;12726;49.148;8.582;2023-02-12T07:23:26;102524.31;;;4.48;100.00
24558;BME280;12726;49.148;8.582;2023-02-12T07:26:12;102531.13;;;4.52;100.00
24558;BME280;12726;49.148;8.582;2023-02-12T07:28:58;102532.69;;;4.55;100.00
24558;BME280;12726;49.148;8.582;2023-02-12T07:31:43;102531.59;;;4.57;100.00
24558;BME280;12726;49.148;8.582;2023-02-12T07:34:30;102528.31;;;4.65;100.00
24558;BME280;12726;49.148;8.582;2023-02-12T07:37:16;102532.31;;;4.70;100.00
24558;BME280;12726;49.148;8.582;2023-02-12T07:40:07;102530.84;;;4.78;100.00
24558;BME280;12726;49.148;8.582;2023-02-12T07:42:54;102524.31;;;4.82;99.99
24558;BME280;12726;49.148;8.582;2023-02-12T07:45:39;102530.13;;;4.87;100.00
24558;BME280;12726;49.148;8.582;2023-02-12T07:48:24;102521.50;;;4.94;99.74
24558;BME280;12726;49.148;8.582;2023-02-12T07:51:14;102528.03;;;5.01;99.59
24558;BME280;12726;49.148;8.582;2023-02-12T07:53:59;102531.91;;;5.08;99.36
24558;BME280;12726;49.148;8.582;2023-02-12T07:56:44;102538.22;;;5.19;99.03
24558;BME280;12726;49.148;8.582;2023-02-12T07:59:30;102529.69;;;5.25;98.35
24558;BME280;12726;49.148;8.582;2023-02-12T08:02:16;102528.22;;;5.32;98.02
24558;BME280;12726;49.148;8.582;2023-02-12T08:05:01;102530.09;;;5.41;98.02
24558;BME280;12726;49.148;8.582;2023-02-12T08:07:48;102530.19;;;5.50;97.55
24558;BME280;12726;49.148;8.582;2023-02-12T08:10:33;102532.09;;;5.60;97.11
24558;BME280;12726;49.148;8.582;2023-02-12T08:13:19;102538.75;;;5.65;96.63
24558;BME280;12726;49.148;8.582;2023-02-12T08:16:08;102532.25;;;5.79;95.24
24558;BME280;12726;49.148;8.582;2023-02-12T08:18:54;102528.59;;;5.80;94.48
24558;BME280;12726;49.148;8.582;2023-02-12T08:21:40;102541.69;;;5.83;94.39
24558;BME280;12726;49.148;8.582;2023-02-12T08:24:28;102540.59;;;5.85;94.37
24558;BME280;12726;49.148;8.582;2023-02-12T08:27:13;102546.69;;;5.87;93.95
24558;BME280;12726;49.148;8.582;2023-02-12T08:29:58;102538.41;;;5.90;93.95
24558;BME280;12726;49.148;8.582;2023-02-12T08:32:47;102538.72;;;5.97;93.68
24558;BME280;12726;49.148;8.582;2023-02-12T08:35:33;102554.41;;;6.02;93.25
24558;BME280;12726;49.148;8.582;2023-02-12T08:38:18;102546.09;;;6.05;93.39
24558;BME280;12726;49.148;8.582;2023-02-12T08:41:08;102545.13;;;6.06;92.88
24558;BME280;12726;49.148;8.582;2023-02-12T08:43:54;102551.19;;;6.08;92.45
24558;BME280;12726;49.148;8.582;2023-02-12T08:46:43;102547.78;;;6.06;92.22
24558;BME280;12726;49.148;8.582;2023-02-12T08:49:30;102554.84;;;6.07;92.30
24558;BME280;12726;49.148;8.582;2023-02-12T08:52:15;102553.75;;;6.09;92.02
24558;BME280;12726;49.148;8.582;2023-02-12T08:55:02;102558.97;;;6.11;91.94
24558;BME280;12726;49.148;8.582;2023-02-12T08:57:48;102557.84;;;6.13;92.05
24558;BME280;12726;49.148;8.582;2023-02-12T09:00:36;102555.16;;;6.13;91.99
24558;BME280;12726;49.148;8.582;2023-02-12T09:03:21;102558.69;;;6.14;92.21
24558;BME280;12726;49.148;8.582;2023-02-12T09:06:07;102552.81;;;6.20;92.14
24558;BME280;12726;49.148;8.582;2023-02-12T09:08:54;102564.22;;;6.22;92.08
24558;BME280;12726;49.148;8.582;2023-02-12T09:11:39;102560.19;;;6.27;92.07
24558;BME280;12726;49.148;8.582;2023-02-12T09:14:26;102563.16;;;6.34;91.84
24558;BME280;12726;49.148;8.582;2023-02-12T09:17:12;102553.75;;;6.40;91.95
24558;BME280;12726;49.148;8.582;2023-02-12T09:19:57;102552.41;;;6.45;91.89
24558;BME280;12726;49.148;8.582;2023-02-12T09:22:44;102564.66;;;6.48;91.89
24558;BME280;12726;49.148;8.582;2023-02-12T09:25:29;102563.00;;;6.56;91.26
24558;BME280;12726;49.148;8.582;2023-02-12T09:28:17;102566.13;;;6.61;91.02
24558;BME280;12726;49.148;8.582;2023-02-12T09:31:08;102567.16;;;6.70;90.92
24558;BME280;12726;49.148;8.582;2023-02-12T09:33:56;102567.22;;;6.80;90.40
24558;BME280;12726;49.148;8.582;2023-02-12T09:36:42;102567.94;;;6.91;90.02
24558;BME280;12726;49.148;8.582;2023-02-12T09:39:27;102565.84;;;7.04;89.23
24558;BME280;12726;49.148;8.582;2023-02-12T09:42:37;102571.97;;;7.16;88.45
24558;BME280;12726;49.148;8.582;2023-02-12T09:45:31;102567.91;;;7.31;87.37
24558;BME280;12726;49.148;8.582;2023-02-12T09:48:38;102552.69;;;7.41;85.56
24558;BME280;12726;49.148;8.582;2023-02-12T09:51:27;102559.34;;;7.57;84.02
24558;BME280;12726;49.148;8.582;2023-02-12T09:54:16;102561.84;;;7.68;83.32
24558;BME280;12726;49.148;8.582;2023-02-12T09:57:05;102561.44;;;7.82;82.56
24558;BME280;12726;49.148;8.582;2023-02-12T09:59:56;102566.25;;;7.88;81.08
24558;BME280;12726;49.148;8.582;2023-02-12T10:02:42;102565.09;;;8.00;80.66
24558;BME280;12726;49.148;8.582;2023-02-12T10:05:31;102555.63;;;7.96;80.21
24558;BME280;12726;49.148;8.582;2023-02-12T10:08:31;102563.97;;;8.03;80.38
24558;BME280;12726;49.148;8.582;2023-02-12T10:11:28;102560.47;;;8.02;80.46
24558;BME280;12726;49.148;8.582;2023-02-12T10:17:36;102569.59;;;8.19;79.88
24558;BME280;12726;49.148;8.582;2023-02-12T10:24:01;102559.84;;;8.37;78.31
24558;BME280;12726;49.148;8.582;2023-02-12T10:26:53;102552.47;;;8.39;77.94
24558;BME280;12726;49.148;8.582;2023-02-12T10:29:42;102557.69;;;8.41;78.53
24558;BME280;12726;49.148;8.582;2023-02-12T10:32:32;102559.91;;;8.55;77.99
24558;BME280;12726;49.148;8.582;2023-02-12T10:35:21;102549.84;;;8.67;78.00
24558;BME280;12726;49.148;8.582;2023-02-12T10:38:14;102540.22;;;8.74;77.34
24558;BME280;12726;49.148;8.582;2023-02-12T10:41:01;102553.91;;;8.80;77.58
24558;BME280;12726;49.148;8.582;2023-02-12T10:43:47;102552.84;;;8.91;76.43
24558;BME280;12726;49.148;8.582;2023-02-12T10:46:32;102549.16;;;8.92;76.62
24558;BME280;12726;49.148;8.582;2023-02-12T10:49:18;102535.97;;;8.98;76.15
24558;BME280;12726;49.148;8.582;2023-02-12T10:52:10;102539.91;;;9.04;76.92
24558;BME280;12726;49.148;8.582;2023-02-12T10:54:59;102543.31;;;9.24;76.55
24558;BME280;12726;49.148;8.582;2023-02-12T10:57:45;102540.00;;;9.12;76.45
24558;BME280;12726;49.148;8.582;2023-02-12T11:00:32;102544.63;;;9.20;76.10
24558;BME280;12726;49.148;8.582;2023-02-12T11:03:20;102532.72;;;9.22;75.96
24558;BME280;12726;49.148;8.582;2023-02-12T11:06:12;102528.56;;;9.28;76.28
24558;BME280;12726;49.148;8.582;2023-02-12T11:08:58;102524.97;;;9.37;76.14
24558;BME280;12726;49.148;8.582;2023-02-12T11:11:43;102526.72;;;9.46;75.69
24558;BME280;12726;49.148;8.582;2023-02-12T11:14:31;102528.03;;;9.60;74.93
24558;BME280;12726;49.148;8.582;2023-02-12T11:17:23;102520.75;;;9.70;74.39
24558;BME280;12726;49.148;8.582;2023-02-12T11:20:22;102524.34;;;9.61;74.38
24558;BME280;12726;49.148;8.582;2023-02-12T11:23:23;102519.75;;;9.71;74.66
24558;BME280;12726;49.148;8.582;2023-02-12T11:26:24;102513.75;;;9.77;74.57
24558;BME280;12726;49.148;8.582;2023-02-12T11:29:17;102508.38;;;10.03;74.67
24558;BME280;12726;49.148;8.582;2023-02-12T11:32:06;102504.69;;;10.22;73.62
24558;BME280;12726;49.148;8.582;2023-02-12T11:35:04;102504.78;;;10.46;72.41
24558;BME280;12726;49.148;8.582;2023-02-12T11:37:51;102508.41;;;10.63;71.58
24558;BME280;12726;49.148;8.582;2023-02-12T11:40:37;102513.47;;;10.57;70.78
24558;BME280;12726;49.148;8.582;2023-02-12T11:43:23;102502.88;;;10.64;69.48
24558;BME280;12726;49.148;8.582;2023-02-12T11:46:09;102508.06;;;10.57;70.05
24558;BME280;12726;49.148;8.582;2023-02-12T11:48:56;102502.03;;;10.64;70.28
24558;BME280;12726;49.148;8.582;2023-02-12T11:51:46;102497.69;;;10.71;69.14
24558;BME280;12726;49.148;8.582;2023-02-12T11:54:35;102500.47;;;10.53;70.35
24558;BME280;12726;49.148;8.582;2023-02-12T11:57:36;102491.66;;;10.43;70.25
24558;BME280;12726;49.148;8.582;2023-02-12T12:00:25;102489.78;;;10.35;70.81
24558;BME280;12726;49.148;8.582;2023-02-12T12:03:15;102472.56;;;10.28;70.88
24558;BME280;12726;49.148;8.582;2023-02-12T12:06:17;102484.84;;;10.31;70.70
24558;BME280;12726;49.148;8.582;2023-02-12T12:09:12;102482.16;;;10.23;71.02
24558;BME280;12726;49.148;8.582;2023-02-12T12:12:09;102482.81;;;10.25;71.09
24558;BME280;12726;49.148;8.582;2023-02-12T12:14:59;102488.09;;;10.16;71.58
24558;BME280;12726;49.148;8.582;2023-02-12T12:18:10;102477.81;;;10.30;72.11
24558;BME280;12726;49.148;8.582;2023-02-12T12:21:25;102478.84;;;10.37;71.49
24558;BME280;12726;49.148;8.582;2023-02-12T12:24:14;102471.94;;;10.16;72.54
24558;BME280;12726;49.148;8.582;2023-02-12T12:27:09;102468.88;;;10.29;72.44
24558;BME280;12726;49.148;8.582;2023-02-12T12:43:50;102465.91;;;10.40;70.80
24558;BME280;12726;49.148;8.582;2023-02-12T12:46:50;102460.75;;;10.55;70.40
24558;BME280;12726;49.148;8.582;2023-02-12T12:49:56;102446.91;;;10.92;69.47
24558;BME280;12726;49.148;8.582;2023-02-12T12:52:58;102445.25;;;11.15;68.08
24558;BME280;12726;49.148;8.582;2023-02-12T12:55:58;102441.19;;;11.03;68.79
24558;BME280;12726;49.148;8.582;2023-02-12T12:59:08;102437.31;;;11.30;68.00
24558;BME280;12726;49.148;8.582;2023-02-12T13:05:51;102432.47;;;11.42;66.61
24558;BME280;12726;49.148;8.582;2023-02-12T13:08:55;102436.66;;;11.12;67.34
24558;BME280;12726;49.148;8.582;2023-02-12T13:11:51;102432.94;;;11.13;68.06
24558;BME280;12726;49.148;8.582;2023-02-12T13:14:47;102427.41;;;11.38;67.25
24558;BME280;12726;49.148;8.582;2023-02-12T13:17:41;102427.88;;;11.02;68.61
24558;BME280;12726;49.148;8.582;2023-02-12T13:20:36;102420.25;;;10.89;69.75
24558;BME280;12726;49.148;8.582;2023-02-12T13:23:34;102413.03;;;10.89;69.30
24558;BME280;12726;49.148;8.582;2023-02-12T13:26:25;102413.91;;;11.30;68.45
24558;BME280;12726;49.148;8.582;2023-02-12T13:29:17;102408.19;;;11.25;67.51
24558;BME280;12726;49.148;8.582;2023-02-12T13:32:12;102403.31;;;11.21;68.06
24558;BME280;12726;49.148;8.582;2023-02-12T13:34:59;102400.09;;;11.33;67.95
24558;BME280;12726;49.148;8.582;2023-02-12T13:37:51;102391.97;;;11.74;66.28
24558;BME280;12726;49.148;8.582;2023-02-12T13:40:37;102390.28;;;11.89;66.13
24558;BME280;12726;49.148;8.582;2023-02-12T13:43:38;102388.72;;;12.03;64.40
24558;BME280;12726;49.148;8.582;2023-02-12T13:46:34;102392.41;;;12.02;64.39
24558;BME280;12726;49.148;8.582;2023-02-12T13:49:33;102388.09;;;11.93;64.77
24558;BME280;12726;49.148;8.582;2023-02-12T13:52:28;102385.03;;;11.96;64.79
24558;BME280;12726;49.148;8.582;2023-02-12T13:55:22;102389.03;;;12.08;64.12
24558;BME280;12726;49.148;8.582;2023-02-12T13:58:38;102391.97;;;11.82;64.52
24558;BME280;12726;49.148;8.582;2023-02-12T14:01:39;102396.50;;;11.65;65.63
24558;BME280;12726;49.148;8.582;2023-02-12T14:04:29;102388.25;;;11.83;65.51
24558;BME280;12726;49.148;8.582;2023-02-12T14:07:15;102388.28;;;11.75;65.52
24558;BME280;12726;49.148;8.582;2023-02-12T14:10:04;102386.94;;;11.63;65.95
24558;BME280;12726;49.148;8.582;2023-02-12T14:12:51;102381.03;;;11.51;66.65
24558;BME280;12726;49.148;8.582;2023-02-12T14:15:39;102379.38;;;11.34;67.37
24558;BME280;12726;49.148;8.582;2023-02-12T14:18:32;102373.47;;;11.38;66.95
24558;BME280;12726;49.148;8.582;2023-02-12T14:21:37;102375.66;;;11.43;67.13
24558;BME280;12726;49.148;8.582;2023-02-12T14:24:50;102377.19;;;11.29;67.27
24558;BME280;12726;49.148;8.582;2023-02-12T14:27:40;102372.28;;;11.17;67.80
24558;BME280;12726;49.148;8.582;2023-02-12T14:30:32;102378.34;;;11.11;68.39
24558;BME280;12726;49.148;8.582;2023-02-12T14:33:24;102378.34;;;11.03;69.16
24558;BME280;12726;49.148;8.582;2023-02-12T14:36:18;102377.19;;;11.05;68.47
24558;BME280;12726;49.148;8.582;2023-02-12T14:39:26;102375.13;;;10.83;70.16
24558;BME280;12726;49.148;8.582;2023-02-12T14:42:43;102365.22;;;10.91;69.26
24558;BME280;12726;49.148;8.582;2023-02-12T14:45:33;102373.44;;;10.82;70.03
24558;BME280;12726;49.148;8.582;2023-02-12T14:48:46;102372.41;;;10.67;70.64
24558;BME280;12726;49.148;8.582;2023-02-12T14:51:35;102368.03;;;10.74;70.46
24558;BME280;12726;49.148;8.582;2023-02-12T14:54:28;102362.81;;;10.64;70.83
24558;BME280;12726;49.148;8.582;2023-02-12T14:57:23;102360.47;;;10.69;71.30
24558;BME280;12726;49.148;8.582;2023-02-12T15:00:20;102364.44;;;10.49;72.33
24558;BME280;12726;49.148;8.582;2023-02-12T15:03:19;102359.06;;;10.49;72.37
24558;BME280;12726;49.148;8.582;2023-02-12T15:06:12;102360.91;;;10.48;72.20
24558;BME280;12726;49.148;8.582;2023-02-12T15:09:01;102352.81;;;10.40;72.73
24558;BME280;12726;49.148;8.582;2023-02-12T15:11:59;102349.31;;;10.48;72.52
24558;BME280;12726;49.148;8.582;2023-02-12T15:14:50;102346.44;;;10.49;72.77
24558;BME280;12726;49.148;8.582;2023-02-12T15:17:51;102341.53;;;10.45;72.85
24558;BME280;12726;49.148;8.582;2023-02-12T15:20:44;102344.38;;;10.35;73.49
24558;BME280;12726;49.148;8.582;2023-02-12T15:23:37;102335.31;;;10.36;73.26